This is the latest recevied weather packets stored in our database for station/object VA7IS. If no packets are shown the sender has not sent any weather packets the latest 10 day(s).
| Time | Temp. | Humidity | Pressure | Rain* | Wind** | Luminosity | Snow |
|---|---|---|---|---|---|---|---|
| 1777531204 | 11.11° C | 1% | 1020.6 hPa | 0 mm | - | - | - |
| 1777530003 | 11.67° C | 1% | 1020.6 hPa | 0 mm | - | - | - |
| 1777527004 | 11.67° C | 2% | 1020.5 hPa | 0 mm | - | - | - |
| 1777526704 | 11.67° C | 3% | 1020.5 hPa | 0 mm | - | - | - |
| 1777523405 | 12.22° C | 12% | 1020.7 hPa | 0 mm | - | - | - |
| 1777518005 | 14.44° C | 38% | 1020.5 hPa | 0 mm | - | - | - |
| 1777513804 | 17.78° C | 55% | 1020.9 hPa | 0 mm | - | - | - |
| 1777510504 | 18.33° C | 54% | 1021.2 hPa | 0 mm | - | - | - |
| 1777508703 | 17.78° C | 53% | 1021.3 hPa | 0 mm | - | - | - |
| 1777504804 | 18.33° C | 52% | 1021.9 hPa | 0 mm | - | - | - |
| 1777503004 | 18.89° C | 51% | 1022.2 hPa | 0 mm | - | - | - |
| 1777500603 | 18.33° C | 53% | 1022.6 hPa | 0 mm | - | - | - |
| 1777500004 | 18.33° C | 54% | 1022.7 hPa | 0 mm | - | - | - |
| 1777499704 | 18.89° C | 53% | 1022.7 hPa | 0 mm | - | - | - |
| 1777493103 | 17.22° C | 54% | 1023.2 hPa | 0 mm | - | - | - |
| 1777491904 | 16.67° C | 55% | 1023.4 hPa | 0 mm | - | - | - |
| 1777491603 | 16.11° C | 55% | 1023.4 hPa | 0 mm | - | - | - |
| 1777491304 | 16.11° C | 54% | 1023.4 hPa | 0 mm | - | - | - |
| 1777489204 | 16.11° C | 53% | 1023.6 hPa | 0 mm | - | - | - |
| 1777488004 | 16.11° C | 54% | 1023.8 hPa | 0 mm | - | - | - |
| 1777486804 | 15.56° C | 55% | 1024 hPa | 0 mm | - | - | - |
| 1777480803 | 13.89° C | 29% | 1024.4 hPa | 0 mm | - | - | - |
| 1777478704 | 11.67° C | 1% | 1024.7 hPa | 0 mm | - | - | - |
| 1777477803 | 11.67° C | 1% | 1024.7 hPa | 0 mm | - | - | - |
| 1777477503 | 11.67° C | 1% | 1024.7 hPa | 0 mm | - | - | - |
* Rain latest hour (hover to see other rain measurements)
** Current wind speed in m/s (hover to see current wind gust speed)